createdAt,value
2018-05-18T00:02:01.449Z,12.40
2018-05-18T00:04:29.742Z,12.40
2018-05-18T00:06:58.026Z,12.50
2018-05-18T00:09:25.570Z,12.40
2018-05-18T00:11:53.861Z,12.50
2018-05-18T00:14:22.134Z,12.50
2018-05-18T00:16:50.444Z,12.50
2018-05-18T00:19:18.023Z,12.50
2018-05-18T00:21:45.529Z,12.50
2018-05-18T00:24:13.057Z,12.50
2018-05-18T00:26:40.570Z,12.40
2018-05-18T00:29:08.858Z,12.40
2018-05-18T00:31:37.167Z,12.40
2018-05-18T00:34:04.678Z,12.40
2018-05-18T00:36:32.953Z,12.40
2018-05-18T00:39:00.489Z,12.40
2018-05-18T00:41:28.018Z,12.50
2018-05-18T00:43:56.293Z,12.40
2018-05-18T00:46:24.601Z,12.30
2018-05-18T00:48:52.126Z,12.30
2018-05-18T00:51:19.645Z,12.30
2018-05-18T00:53:47.179Z,12.30
2018-05-18T00:56:15.449Z,12.40
2018-05-18T00:58:43.730Z,12.40
2018-05-18T01:01:12.129Z,12.30
2018-05-18T01:03:39.653Z,12.30
2018-05-18T01:06:08.686Z,12.20
2018-05-18T01:08:37.001Z,12.30
2018-05-18T01:11:04.517Z,12.30
2018-05-18T01:13:33.033Z,12.30
2018-05-18T01:16:00.565Z,12.20
2018-05-18T01:18:28.841Z,12.30
2018-05-18T01:23:31.174Z,12.40
2018-05-18T01:25:58.688Z,12.40
2018-05-18T01:28:26.218Z,12.30
2018-05-18T01:30:53.745Z,12.30
2018-05-18T01:33:22.069Z,12.20
2018-05-18T01:35:49.593Z,12.20
2018-05-18T01:38:17.888Z,12.00
2018-05-18T01:40:45.398Z,12.00
2018-05-18T01:43:13.025Z,12.00
2018-05-18T01:45:40.563Z,12.10
2018-05-18T01:48:08.838Z,12.10
2018-05-18T01:50:37.109Z,12.20
2018-05-18T01:53:05.426Z,12.10
2018-05-18T01:55:32.945Z,12.10
2018-05-18T01:58:01.222Z,12.10
2018-05-18T02:00:28.749Z,12.00
2018-05-18T02:02:56.267Z,12.00
2018-05-18T02:05:24.579Z,11.90
2018-05-18T02:07:52.113Z,11.90
2018-05-18T02:10:20.404Z,12.00
2018-05-18T02:12:48.680Z,11.90
2018-05-18T02:15:16.993Z,12.00
2018-05-18T02:17:44.514Z,12.00
2018-05-18T02:20:12.045Z,12.10
2018-05-18T02:22:39.585Z,12.00
2018-05-18T02:25:07.957Z,12.00
2018-05-18T02:27:35.482Z,11.90
2018-05-18T02:30:03.050Z,11.80
2018-05-18T02:32:31.374Z,11.80
2018-05-18T02:34:58.885Z,11.80
2018-05-18T02:37:26.426Z,11.80
2018-05-18T02:39:53.978Z,11.80
2018-05-18T02:42:21.486Z,11.80
2018-05-18T02:44:50.543Z,11.60
2018-05-18T02:47:18.062Z,11.60
2018-05-18T02:49:46.343Z,11.70
2018-05-18T02:52:14.701Z,11.70
2018-05-18T02:54:42.186Z,11.60
2018-05-18T02:57:10.487Z,11.70
2018-05-18T02:59:38.797Z,11.70
2018-05-18T03:02:06.325Z,11.70
2018-05-18T03:04:34.623Z,11.60
2018-05-18T03:07:02.165Z,11.60
2018-05-18T03:09:30.441Z,11.60
2018-05-18T03:11:57.965Z,11.50
2018-05-18T03:14:25.509Z,11.70
2018-05-18T03:16:53.094Z,11.80
2018-05-18T03:19:20.629Z,11.70
2018-05-18T03:21:48.182Z,11.70
2018-05-18T03:24:16.463Z,11.60
2018-05-18T03:26:44.814Z,11.60
2018-05-18T03:29:12.343Z,11.60
2018-05-18T03:31:39.853Z,11.60
2018-05-18T03:34:07.379Z,11.50
2018-05-18T03:36:34.914Z,11.50
2018-05-18T03:39:02.425Z,11.60
2018-05-18T03:41:29.933Z,11.60
2018-05-18T03:43:58.238Z,11.50
2018-05-18T03:46:25.769Z,11.50
2018-05-18T03:48:54.046Z,11.60
2018-05-18T03:51:22.341Z,11.50
2018-05-18T03:53:50.636Z,11.50
2018-05-18T03:56:18.162Z,11.50
2018-05-18T03:58:46.461Z,11.60
2018-05-18T04:01:26.588Z,11.50
2018-05-18T04:04:06.182Z,11.50
2018-05-18T04:06:54.503Z,11.60
2018-05-18T04:09:22.033Z,11.70
2018-05-18T04:11:51.122Z,11.60
2018-05-18T04:14:18.639Z,11.60
2018-05-18T04:16:46.206Z,11.60
2018-05-18T04:19:14.498Z,11.70
2018-05-18T04:21:42.018Z,11.60
2018-05-18T04:24:10.336Z,11.70
2018-05-18T04:26:37.896Z,11.70
2018-05-18T04:29:05.530Z,11.80
2018-05-18T04:31:33.128Z,11.90
2018-05-18T04:34:00.690Z,11.90
2018-05-18T04:36:28.205Z,11.90
2018-05-18T04:38:55.737Z,12.00
2018-05-18T04:41:23.250Z,12.00
2018-05-18T04:43:50.772Z,11.90
2018-05-18T04:46:18.313Z,12.00
2018-05-18T04:48:45.825Z,12.00
2018-05-18T04:51:13.459Z,12.10
2018-05-18T04:53:41.025Z,12.10
2018-05-18T04:56:08.545Z,12.10
2018-05-18T04:58:36.841Z,12.10
2018-05-18T05:01:04.421Z,12.10
2018-05-18T05:03:31.944Z,12.30
2018-05-18T05:06:00.257Z,12.30
2018-05-18T05:08:27.866Z,12.30
2018-05-18T05:10:55.391Z,12.40
2018-05-18T05:13:23.794Z,12.50
2018-05-18T05:15:51.328Z,12.50
2018-05-18T05:18:19.617Z,12.50
2018-05-18T05:20:47.135Z,12.50
2018-05-18T05:23:14.682Z,12.50
2018-05-18T05:25:42.213Z,12.50
2018-05-18T05:28:09.738Z,12.40
2018-05-18T05:30:38.210Z,12.50
2018-05-18T05:33:05.733Z,12.40
2018-05-18T05:35:33.253Z,12.40
2018-05-18T05:38:02.301Z,12.40
2018-05-18T05:40:29.829Z,12.40
2018-05-18T05:42:58.109Z,12.40
2018-05-18T05:45:26.419Z,12.30
2018-05-18T05:47:53.962Z,12.20
2018-05-18T05:50:22.254Z,12.10
2018-05-18T05:52:50.601Z,12.10
2018-05-18T05:55:18.101Z,12.00
2018-05-18T05:57:45.627Z,12.00
2018-05-18T06:00:13.238Z,11.90
2018-05-18T06:02:40.785Z,12.00
2018-05-18T06:05:09.059Z,12.20
2018-05-18T06:07:37.378Z,12.30
2018-05-18T06:10:04.933Z,12.30
2018-05-18T06:12:32.452Z,12.40
2018-05-18T06:14:59.991Z,12.30
2018-05-18T06:17:27.514Z,12.30
2018-05-18T06:19:55.132Z,12.30
2018-05-18T06:22:22.688Z,12.50
2018-05-18T06:24:50.224Z,12.70
2018-05-18T06:27:17.782Z,12.70
2018-05-18T06:29:45.338Z,12.80
2018-05-18T06:32:12.927Z,12.80
2018-05-18T06:34:40.568Z,12.80
2018-05-18T06:37:08.041Z,12.80
2018-05-18T06:39:35.564Z,13.00
2018-05-18T06:42:04.593Z,13.20
2018-05-18T06:44:32.129Z,13.20
2018-05-18T06:46:59.658Z,13.20
2018-05-18T06:49:27.181Z,13.30
2018-05-18T06:51:55.546Z,13.70
2018-05-18T06:54:23.053Z,13.60
2018-05-18T06:56:50.611Z,14.50
2018-05-18T06:59:18.145Z,15.40
2018-05-18T07:01:46.436Z,16.80
2018-05-18T07:04:14.773Z,17.60
2018-05-18T07:06:42.333Z,17.60
2018-05-18T07:09:09.853Z,18.30
2018-05-18T07:11:37.370Z,18.80
2018-05-18T07:14:04.907Z,19.50
2018-05-18T07:16:32.478Z,20.10
2018-05-18T07:19:00.074Z,20.20
2018-05-18T07:21:27.602Z,20.50
2018-05-18T07:23:55.123Z,21.00
2018-05-18T07:26:22.678Z,21.90
2018-05-18T07:28:50.997Z,23.40
2018-05-18T07:31:18.514Z,23.30
2018-05-18T07:33:46.095Z,24.10
2018-05-18T07:36:14.449Z,24.00
2018-05-18T07:38:41.933Z,23.90
2018-05-18T07:41:10.209Z,24.50
2018-05-18T07:43:38.537Z,25.40
2018-05-18T07:46:06.078Z,25.30
2018-05-18T07:48:34.365Z,25.30
2018-05-18T07:51:02.670Z,25.50
2018-05-18T07:53:30.269Z,25.40
2018-05-18T07:55:57.761Z,25.00
2018-05-18T07:58:26.077Z,24.20
2018-05-18T08:00:53.594Z,24.20
2018-05-18T08:03:21.870Z,26.80
2018-05-18T08:05:49.433Z,26.70
2018-05-18T08:08:18.457Z,26.40
2018-05-18T08:10:46.752Z,26.90
2018-05-18T08:13:14.312Z,26.80
2018-05-18T08:15:42.587Z,27.20
2018-05-18T08:18:10.886Z,27.00
2018-05-18T08:20:38.408Z,26.90
2018-05-18T08:23:05.925Z,28.00
2018-05-18T08:25:33.437Z,28.80
2018-05-18T08:28:01.735Z,28.80
2018-05-18T08:30:41.841Z,29.70
2018-05-18T08:33:09.385Z,29.60
2018-05-18T08:35:36.960Z,30.30
2018-05-18T08:38:04.500Z,29.20
2018-05-18T08:40:32.058Z,29.30
2018-05-18T08:42:59.642Z,30.00
2018-05-18T08:45:27.166Z,30.70
2018-05-18T08:47:56.216Z,31.20
2018-05-18T08:50:23.735Z,31.20
2018-05-18T08:52:52.047Z,32.30
2018-05-18T08:55:19.577Z,32.30
2018-05-18T08:57:47.293Z,32.50
2018-05-18T09:00:14.798Z,32.90
2018-05-18T09:02:43.190Z,31.60
2018-05-18T09:05:11.490Z,31.50
2018-05-18T09:07:39.870Z,32.50
2018-05-18T09:10:08.190Z,33.60
2018-05-18T09:12:35.712Z,33.50
2018-05-18T09:15:03.228Z,34.20
2018-05-18T09:17:30.762Z,32.10
2018-05-18T09:19:58.273Z,32.00
2018-05-18T09:22:25.797Z,32.50
2018-05-18T09:24:53.333Z,32.50
2018-05-18T09:27:21.638Z,32.50
2018-05-18T09:29:49.157Z,32.50
2018-05-18T09:32:17.477Z,33.70
2018-05-18T09:34:45.003Z,33.60
2018-05-18T09:37:14.099Z,34.70
2018-05-18T09:39:43.217Z,34.30
2018-05-18T09:42:10.676Z,34.30
2018-05-18T09:44:38.980Z,34.40
2018-05-18T09:47:07.370Z,35.00
2018-05-18T09:49:34.889Z,35.00
2018-05-18T09:52:02.424Z,35.40
2018-05-18T09:54:30.086Z,35.80
2018-05-18T09:56:57.492Z,35.60
2018-05-18T09:59:25.011Z,35.00
2018-05-18T10:01:52.561Z,35.80
2018-05-18T10:04:20.099Z,34.90
2018-05-18T10:06:48.394Z,36.30
2018-05-18T10:09:16.686Z,36.00
2018-05-18T10:11:44.257Z,35.90
2018-05-18T10:14:11.793Z,35.10
2018-05-18T10:16:40.109Z,36.00
2018-05-18T10:19:07.634Z,35.90
2018-05-18T10:21:35.948Z,37.00
2018-05-18T10:24:03.482Z,37.00
2018-05-18T10:26:31.769Z,36.60
2018-05-18T10:29:00.058Z,35.10
2018-05-18T10:31:27.629Z,35.00
2018-05-18T10:33:55.150Z,35.50
2018-05-18T10:36:24.183Z,36.30
2018-05-18T10:38:52.662Z,36.10
2018-05-18T10:41:20.946Z,36.70
2018-05-18T10:43:49.217Z,37.70
2018-05-18T10:46:17.527Z,38.10
2018-05-18T10:48:45.050Z,38.10
2018-05-18T10:51:12.645Z,38.20
2018-05-18T10:53:40.226Z,38.00
2018-05-18T10:56:07.753Z,38.40
2018-05-18T10:58:36.119Z,38.10
2018-05-18T11:01:03.585Z,38.10
2018-05-18T11:03:32.011Z,36.80
2018-05-18T11:05:59.453Z,36.70
2018-05-18T11:08:27.748Z,38.30
2018-05-18T11:10:56.037Z,38.70
2018-05-18T11:13:23.557Z,38.60
2018-05-18T11:15:51.097Z,39.00
2018-05-18T11:18:18.611Z,38.40
2018-05-18T11:20:46.888Z,38.90
2018-05-18T11:23:15.202Z,38.80
2018-05-18T11:25:42.709Z,38.80
2018-05-18T11:28:10.318Z,36.50
2018-05-18T11:30:37.854Z,36.60
2018-05-18T11:33:05.554Z,35.90
2018-05-18T11:35:33.025Z,37.60
2018-05-18T11:38:00.578Z,39.20
2018-05-18T11:40:28.245Z,38.50
2018-05-18T11:42:55.766Z,38.00
2018-05-18T11:45:23.297Z,39.30
2018-05-18T11:47:50.856Z,39.00
2018-05-18T11:50:18.386Z,38.50
2018-05-18T11:52:46.694Z,38.80
2018-05-18T11:55:14.248Z,38.70
2018-05-18T11:57:41.777Z,39.10
2018-05-18T12:00:10.836Z,39.00
2018-05-18T12:02:38.359Z,39.00
2018-05-18T12:05:06.642Z,38.10
2018-05-18T12:07:34.939Z,39.00
2018-05-18T12:10:02.467Z,38.90
2018-05-18T12:12:29.974Z,39.30
2018-05-18T12:14:57.506Z,40.00
2018-05-18T12:17:25.018Z,38.80
2018-05-18T12:19:52.573Z,38.60
2018-05-18T12:22:20.134Z,38.40
2018-05-18T12:24:47.641Z,39.10
2018-05-18T12:27:15.159Z,39.40
2018-05-18T12:29:42.706Z,39.60
2018-05-18T12:32:10.990Z,39.50
2018-05-18T12:34:39.305Z,39.60
2018-05-18T12:37:06.847Z,39.60
2018-05-18T12:39:34.365Z,39.90
2018-05-18T12:42:02.769Z,37.60
2018-05-18T12:44:30.316Z,37.60
2018-05-18T12:46:58.596Z,36.30
2018-05-18T12:49:26.222Z,36.30
2018-05-18T12:51:53.766Z,35.60
2018-05-18T12:54:21.273Z,33.50
2018-05-18T12:56:48.794Z,31.70
2018-05-18T12:59:16.368Z,30.70
2018-05-18T13:01:43.882Z,29.90
2018-05-18T13:04:12.913Z,28.00
2018-05-18T13:06:41.221Z,27.80
2018-05-18T13:09:08.854Z,27.70
2018-05-18T13:11:36.306Z,27.00
2018-05-18T13:14:04.613Z,26.40
2018-05-18T13:16:32.911Z,25.80
2018-05-18T13:19:00.437Z,25.70
2018-05-18T13:23:57.621Z,24.90
2018-05-18T13:26:25.912Z,24.60
2018-05-18T13:28:54.221Z,24.70
2018-05-18T13:31:21.877Z,24.70
2018-05-18T13:33:49.381Z,24.70
2018-05-18T13:36:16.926Z,24.50
2018-05-18T13:38:44.518Z,24.40
2018-05-18T13:41:11.979Z,24.40
2018-05-18T13:43:39.646Z,24.10
2018-05-18T13:46:07.163Z,24.00
2018-05-18T13:48:34.674Z,24.10
2018-05-18T13:51:02.220Z,24.00
2018-05-18T13:53:29.741Z,23.90
2018-05-18T13:55:57.271Z,23.60
2018-05-18T13:58:25.628Z,23.60
2018-05-18T14:00:53.142Z,23.20
2018-05-18T14:03:21.425Z,23.00
2018-05-18T14:05:49.739Z,22.80
2018-05-18T14:08:17.249Z,22.80
2018-05-18T14:10:44.854Z,23.00
2018-05-18T14:13:12.381Z,23.00
2018-05-18T14:15:39.984Z,22.90
2018-05-18T14:18:07.524Z,22.80
2018-05-18T14:20:35.838Z,23.00
2018-05-18T14:23:03.369Z,22.90
2018-05-18T14:25:31.649Z,22.90
2018-05-18T14:27:59.977Z,22.80
2018-05-18T14:30:27.498Z,22.80
2018-05-18T14:32:55.786Z,22.80
2018-05-18T14:35:24.110Z,22.80
2018-05-18T14:37:51.694Z,22.80
2018-05-18T14:40:19.150Z,22.70
2018-05-18T14:42:46.693Z,22.50
2018-05-18T14:45:14.359Z,22.50
2018-05-18T14:47:41.913Z,22.50
2018-05-18T14:50:09.450Z,22.60
2018-05-18T14:52:37.722Z,22.50
2018-05-18T14:55:06.043Z,22.40
2018-05-18T14:57:33.593Z,22.40
2018-05-18T15:00:01.153Z,22.40
2018-05-18T15:02:28.685Z,22.20
2018-05-18T15:04:56.230Z,22.20
2018-05-18T15:07:23.748Z,22.20
2018-05-18T15:12:28.125Z,22.10
2018-05-18T15:14:55.630Z,22.10
2018-05-18T15:17:23.140Z,22.10
2018-05-18T15:19:50.677Z,22.10
2018-05-18T15:22:19.073Z,22.00
2018-05-18T15:24:46.610Z,21.90
2018-05-18T15:27:14.923Z,22.10
2018-05-18T15:29:42.493Z,22.00
2018-05-18T15:32:10.009Z,22.00
2018-05-18T15:34:37.550Z,22.00
2018-05-18T15:37:05.057Z,22.00
2018-05-18T15:39:33.364Z,21.90
2018-05-18T15:42:00.925Z,21.80
2018-05-18T15:44:28.462Z,21.80
2018-05-18T15:46:56.792Z,21.80
2018-05-18T15:49:24.370Z,21.70
2018-05-18T15:51:51.881Z,21.60
2018-05-18T15:54:20.213Z,21.40
2018-05-18T15:56:47.761Z,21.30
2018-05-18T15:59:15.273Z,21.40
2018-05-18T16:01:42.799Z,21.40
2018-05-18T16:04:10.342Z,21.40
2018-05-18T16:06:37.909Z,21.40
2018-05-18T16:09:05.422Z,21.40
2018-05-18T16:11:32.993Z,21.20
2018-05-18T16:14:00.538Z,21.30
2018-05-18T16:16:28.064Z,21.30
2018-05-18T16:18:55.629Z,21.30
2018-05-18T16:21:23.143Z,21.30
2018-05-18T16:23:51.484Z,21.20
2018-05-18T16:26:19.025Z,21.20
2018-05-18T16:28:46.557Z,21.10
2018-05-18T16:31:14.079Z,21.00
2018-05-18T16:33:41.615Z,21.00
2018-05-18T16:36:09.881Z,20.90
2018-05-18T16:38:38.162Z,20.90
2018-05-18T16:41:06.469Z,20.90
2018-05-18T16:43:33.989Z,20.90
2018-05-18T16:46:01.521Z,20.90
2018-05-18T16:48:29.095Z,20.90
2018-05-18T16:50:56.603Z,20.80
2018-05-18T16:53:24.881Z,20.70
2018-05-18T16:55:53.177Z,20.70
2018-05-18T16:58:21.454Z,20.60
2018-05-18T17:00:49.732Z,20.60
2018-05-18T17:03:18.051Z,20.50
2018-05-18T17:05:45.561Z,20.40
2018-05-18T17:08:13.838Z,20.50
2018-05-18T17:10:42.145Z,20.40
2018-05-18T17:13:10.425Z,20.40
2018-05-18T17:15:38.705Z,20.30
2018-05-18T17:18:07.016Z,20.30
2018-05-18T17:20:36.662Z,20.20
2018-05-18T17:23:04.187Z,20.20
2018-05-18T17:25:32.288Z,20.20
2018-05-18T17:27:59.858Z,20.10
2018-05-18T17:30:27.532Z,20.10
2018-05-18T17:32:57.488Z,19.90
2018-05-18T17:35:26.308Z,19.90
2018-05-18T17:37:53.921Z,19.80
2018-05-18T17:40:22.358Z,19.80
2018-05-18T17:42:49.914Z,19.70
2018-05-18T17:45:19.553Z,19.70
2018-05-18T17:47:47.105Z,19.60
2018-05-18T17:50:14.777Z,19.60
2018-05-18T17:52:42.290Z,19.60
2018-05-18T17:55:09.826Z,19.50
2018-05-18T17:57:37.341Z,19.50
2018-05-18T18:00:05.630Z,19.40
2018-05-18T18:02:33.174Z,19.30
2018-05-18T18:05:01.463Z,19.20
2018-05-18T18:07:29.758Z,19.20
2018-05-18T18:09:57.328Z,19.20
2018-05-18T18:12:24.846Z,19.20
2018-05-18T18:14:54.037Z,19.00
2018-05-18T18:17:21.565Z,19.00
2018-05-18T18:19:49.096Z,19.10
2018-05-18T18:22:17.391Z,18.90
2018-05-18T18:24:45.706Z,18.90
2018-05-18T18:27:13.217Z,18.90
2018-05-18T18:29:40.733Z,18.90
2018-05-18T18:32:08.269Z,18.80
2018-05-18T18:34:35.795Z,18.80
2018-05-18T18:37:04.089Z,18.60
2018-05-18T18:39:31.647Z,18.60
2018-05-18T18:41:59.925Z,18.50
2018-05-18T18:44:28.943Z,18.40
2018-05-18T18:46:57.265Z,18.40
2018-05-18T18:49:24.779Z,18.30
2018-05-18T18:51:52.426Z,18.40
2018-05-18T18:54:19.966Z,18.30
2018-05-18T18:56:47.478Z,18.20
2018-05-18T18:59:15.811Z,18.10
2018-05-18T19:01:43.362Z,18.00
2018-05-18T19:04:10.886Z,18.00
2018-05-18T19:06:39.187Z,17.90
2018-05-18T19:09:06.721Z,17.90
2018-05-18T19:11:34.291Z,17.90
2018-05-18T19:14:02.626Z,17.90
2018-05-18T19:16:30.180Z,17.80
2018-05-18T19:18:57.687Z,17.80
2018-05-18T19:21:25.198Z,17.70
2018-05-18T19:23:52.754Z,17.70
2018-05-18T19:26:21.031Z,17.50
2018-05-18T19:28:49.318Z,17.50
2018-05-18T19:31:17.705Z,17.50
2018-05-18T19:33:45.220Z,17.40
2018-05-18T19:36:12.740Z,17.40
2018-05-18T19:38:40.271Z,17.40
2018-05-18T19:41:07.785Z,17.40
2018-05-18T19:43:35.295Z,17.40
2018-05-18T19:46:03.731Z,17.20
2018-05-18T19:48:31.251Z,17.20
2018-05-18T19:50:59.538Z,17.10
2018-05-18T19:53:27.944Z,17.10
2018-05-18T19:55:55.462Z,17.00
2018-05-18T19:58:22.994Z,17.00
2018-05-18T20:00:50.541Z,17.00
2018-05-18T20:03:18.053Z,17.00
2018-05-18T20:05:45.569Z,17.00
2018-05-18T20:08:13.113Z,17.00
2018-05-18T20:10:41.393Z,16.90
2018-05-18T20:13:09.672Z,16.80
2018-05-18T20:15:37.982Z,16.80
2018-05-18T20:18:05.499Z,16.70
2018-05-18T20:20:33.006Z,16.80
2018-05-18T20:23:00.539Z,16.70
2018-05-18T20:25:28.813Z,16.70
2018-05-18T20:27:57.107Z,16.70
2018-05-18T20:30:25.413Z,16.60
2018-05-18T20:32:52.925Z,16.60
2018-05-18T20:35:20.430Z,16.60
2018-05-18T20:37:47.986Z,16.50
2018-05-18T20:40:15.508Z,16.50
2018-05-18T20:42:43.040Z,16.50
2018-05-18T20:45:10.630Z,16.40
2018-05-18T20:47:38.117Z,16.30
2018-05-18T20:50:06.398Z,16.20
2018-05-18T20:52:35.494Z,16.10
2018-05-18T20:55:03.261Z,16.10
2018-05-18T20:57:32.283Z,16.00
2018-05-18T21:00:00.602Z,16.10
2018-05-18T21:02:28.116Z,16.00
2018-05-18T21:04:56.397Z,15.90
2018-05-18T21:07:24.706Z,15.90
2018-05-18T21:09:52.213Z,15.80
2018-05-18T21:12:19.732Z,15.80
2018-05-18T21:14:47.292Z,15.70
2018-05-18T21:17:15.573Z,15.70
2018-05-18T21:19:43.851Z,15.60
2018-05-18T21:22:11.563Z,15.60
2018-05-18T21:24:39.120Z,15.60
2018-05-18T21:27:06.640Z,15.50
2018-05-18T21:29:36.001Z,15.50
2018-05-18T21:32:03.561Z,15.50
2018-05-18T21:34:31.157Z,15.50
2018-05-18T21:36:58.784Z,15.50
2018-05-18T21:39:26.311Z,15.40
2018-05-18T21:41:53.909Z,15.40
2018-05-18T21:44:21.474Z,15.40
2018-05-18T21:46:49.051Z,15.30
2018-05-18T21:49:16.607Z,15.30
2018-05-18T21:51:44.213Z,15.30
2018-05-18T21:54:11.719Z,15.30
2018-05-18T21:56:39.422Z,15.30
2018-05-18T21:59:07.079Z,15.30
2018-05-18T22:01:34.647Z,15.20
2018-05-18T22:04:02.158Z,15.20
2018-05-18T22:06:30.557Z,15.20
2018-05-18T22:08:58.031Z,15.10
2018-05-18T22:14:07.404Z,15.10
2018-05-18T22:16:35.649Z,15.10
2018-05-18T22:19:03.953Z,15.00
2018-05-18T22:21:31.518Z,14.90
2018-05-18T22:23:59.054Z,14.90
2018-05-18T22:26:26.633Z,14.90
2018-05-18T22:28:54.208Z,14.90
2018-05-18T22:31:21.758Z,14.80
2018-05-18T22:33:50.034Z,14.80
2018-05-18T22:36:18.349Z,14.80
2018-05-18T22:38:45.858Z,14.70
2018-05-18T22:41:13.373Z,14.80
2018-05-18T22:43:40.912Z,14.70
2018-05-18T22:46:09.190Z,14.60
2018-05-18T22:48:37.470Z,14.60
2018-05-18T22:51:05.774Z,14.50
2018-05-18T22:53:33.325Z,14.40
2018-05-18T22:56:01.654Z,14.50
2018-05-18T22:58:29.445Z,14.40
2018-05-18T23:00:56.961Z,14.50
2018-05-18T23:03:24.484Z,14.40
2018-05-18T23:05:52.794Z,14.40
2018-05-18T23:08:20.298Z,14.30
2018-05-18T23:10:47.828Z,14.30
2018-05-18T23:13:15.364Z,14.20
2018-05-18T23:15:43.643Z,14.20
2018-05-18T23:18:11.921Z,14.30
2018-05-18T23:20:39.450Z,14.20
2018-05-18T23:23:07.014Z,14.30
2018-05-18T23:25:34.537Z,14.30
2018-05-18T23:28:02.074Z,14.20
2018-05-18T23:30:30.366Z,14.10
2018-05-18T23:32:58.649Z,14.10
2018-05-18T23:35:26.970Z,14.00
2018-05-18T23:37:54.477Z,13.90
2018-05-18T23:40:22.762Z,13.90
2018-05-18T23:42:51.062Z,13.80
2018-05-18T23:45:20.572Z,13.80
2018-05-18T23:47:48.160Z,13.80
2018-05-18T23:50:15.681Z,13.90
2018-05-18T23:52:43.277Z,13.80
2018-05-18T23:55:10.835Z,13.80
2018-05-18T23:57:39.126Z,13.80
